createdAt,value
2023-03-10T00:01:56.642Z,98906.78
2023-03-10T00:04:28.522Z,98918.84
2023-03-10T00:07:03.240Z,98910.09
2023-03-10T00:09:33.942Z,98911.88
2023-03-10T00:12:04.098Z,98920.72
2023-03-10T00:14:33.782Z,98922.38
2023-03-10T00:17:02.445Z,98929.13
2023-03-10T00:19:32.467Z,98926.63
2023-03-10T00:22:02.901Z,98935.72
2023-03-10T00:24:32.502Z,98948.16
2023-03-10T00:27:01.102Z,98955.13
2023-03-10T00:29:31.214Z,98959.19
2023-03-10T00:32:01.738Z,98971.25
2023-03-10T00:34:31.466Z,98976.38
2023-03-10T00:37:02.108Z,98996.06
2023-03-10T00:39:30.643Z,98987.41
2023-03-10T00:42:01.282Z,98999.38
2023-03-10T00:44:31.426Z,99002.72
2023-03-10T00:47:00.108Z,99007.47
2023-03-10T00:49:29.826Z,99029.34
2023-03-10T00:51:59.396Z,99044.94
2023-03-10T00:54:28.907Z,99057.63
2023-03-10T00:56:58.499Z,99074.25
2023-03-10T00:59:29.604Z,99084.78
2023-03-10T01:02:04.058Z,99105.13
2023-03-10T01:04:32.718Z,99100.31
2023-03-10T01:07:01.526Z,99127.25
2023-03-10T01:09:31.223Z,99119.09
2023-03-10T01:12:00.783Z,99129.38
2023-03-10T01:14:29.390Z,99137.28
2023-03-10T01:17:00.905Z,99167.19
2023-03-10T01:19:32.380Z,99187.97
2023-03-10T01:22:00.917Z,99218.25
2023-03-10T01:24:29.530Z,99240.72
2023-03-10T01:26:58.359Z,99262.47
2023-03-10T01:29:26.919Z,99276.34
2023-03-10T01:31:56.836Z,99285.38
2023-03-10T01:34:25.401Z,99300.22
2023-03-10T01:36:55.497Z,99293.53
2023-03-10T01:39:24.216Z,99300.94
2023-03-10T01:41:52.826Z,99308.16
2023-03-10T01:44:23.343Z,99322.25
2023-03-10T01:46:52.542Z,99323.72
2023-03-10T01:49:27.562Z,99319.88
2023-03-10T01:52:04.118Z,99322.84
2023-03-10T01:54:42.976Z,99315.22
2023-03-10T01:57:23.901Z,99329.97
2023-03-10T01:59:54.547Z,99314.63
2023-03-10T02:02:24.352Z,99319.00
2023-03-10T02:04:55.807Z,99324.25
2023-03-10T02:07:32.370Z,99328.88
2023-03-10T02:10:01.002Z,99326.38
2023-03-10T02:12:36.114Z,99335.72
2023-03-10T02:15:06.311Z,99329.72
2023-03-10T02:17:36.426Z,99335.84
2023-03-10T02:20:23.634Z,99322.94
2023-03-10T02:22:54.168Z,99328.19
2023-03-10T02:25:35.567Z,99333.41
2023-03-10T02:28:06.629Z,99321.34
2023-03-10T02:30:40.336Z,99331.91
2023-03-10T02:33:12.798Z,99331.06
2023-03-10T02:35:41.412Z,99335.41
2023-03-10T02:38:18.921Z,99358.03
2023-03-10T02:40:50.051Z,99363.13
2023-03-10T02:43:25.239Z,99373.53
2023-03-10T02:46:00.637Z,99379.56
2023-03-10T02:48:33.607Z,99391.69
2023-03-10T02:51:05.281Z,99397.72
2023-03-10T02:53:44.120Z,99406.28
2023-03-10T02:56:14.867Z,99415.59
2023-03-10T02:58:45.183Z,99441.47
2023-03-10T03:01:15.172Z,99448.16
2023-03-10T03:03:44.213Z,99450.25
2023-03-10T03:06:14.067Z,99438.78
2023-03-10T03:08:42.897Z,99457.97
2023-03-10T03:11:12.208Z,99467.34
2023-03-10T03:13:41.856Z,99490.06
2023-03-10T03:16:13.808Z,99491.78
2023-03-10T03:18:43.188Z,99498.44
2023-03-10T03:21:17.557Z,99497.50
2023-03-10T03:23:48.050Z,99507.13
2023-03-10T03:26:21.711Z,99508.72
2023-03-10T03:28:52.567Z,99515.69
2023-03-10T03:31:26.053Z,99525.31
2023-03-10T03:33:59.651Z,99530.44
2023-03-10T03:36:30.256Z,99530.44
2023-03-10T03:38:59.798Z,99538.22
2023-03-10T03:41:28.487Z,99551.94
2023-03-10T03:43:58.220Z,99567.22
2023-03-10T03:46:28.349Z,99585.56
2023-03-10T03:48:57.049Z,99592.53
2023-03-10T03:51:26.581Z,99595.13
2023-03-10T03:53:56.220Z,99595.13
2023-03-10T03:56:25.100Z,99614.97
2023-03-10T03:58:54.546Z,99619.31
2023-03-10T04:01:29.766Z,99621.00
2023-03-10T04:03:58.536Z,99644.69
2023-03-10T04:06:27.232Z,99650.72
2023-03-10T04:09:01.895Z,99657.59
2023-03-10T04:11:30.426Z,99653.31
2023-03-10T04:14:00.094Z,99660.19
2023-03-10T04:16:30.423Z,99669.84
2023-03-10T04:19:00.232Z,99684.50
2023-03-10T04:21:34.734Z,99689.59
2023-03-10T04:24:06.192Z,99709.69
2023-03-10T04:26:35.882Z,99719.00
2023-03-10T04:29:04.499Z,99726.03
2023-03-10T04:31:34.604Z,99737.34
2023-03-10T04:34:03.268Z,99742.59
2023-03-10T04:36:32.697Z,99747.13
2023-03-10T04:39:02.711Z,99758.41
2023-03-10T04:41:31.262Z,99770.56
2023-03-10T04:44:00.866Z,99774.91
2023-03-10T04:46:31.959Z,99789.66
2023-03-10T04:49:02.090Z,99797.53
2023-03-10T04:51:31.577Z,99800.19
2023-03-10T04:54:01.332Z,99806.22
2023-03-10T04:56:30.308Z,99823.50
2023-03-10T04:59:00.108Z,99832.03
2023-03-10T05:01:33.319Z,99838.06
2023-03-10T05:04:05.757Z,99835.47
2023-03-10T05:06:34.555Z,99837.38
2023-03-10T05:09:05.143Z,99850.34
2023-03-10T05:11:36.891Z,99856.34
2023-03-10T05:14:05.882Z,99862.38
2023-03-10T05:16:36.496Z,99864.88
2023-03-10T05:19:07.721Z,99873.59
2023-03-10T05:21:36.339Z,99878.69
2023-03-10T05:24:07.143Z,99902.78
2023-03-10T05:26:37.714Z,99906.28
2023-03-10T05:29:06.700Z,99915.94
2023-03-10T05:31:36.626Z,99928.13
2023-03-10T05:34:07.170Z,99941.81
2023-03-10T05:36:36.081Z,99944.50
2023-03-10T05:39:07.221Z,99941.19
2023-03-10T05:41:44.664Z,99930.09
2023-03-10T05:44:14.264Z,99940.59
2023-03-10T05:46:42.906Z,99940.56
2023-03-10T05:49:13.014Z,99945.59
2023-03-10T05:51:41.605Z,99949.81
2023-03-10T05:54:10.593Z,99951.50
2023-03-10T05:56:40.023Z,99979.84
2023-03-10T05:59:08.656Z,99992.06
2023-03-10T06:01:37.753Z,99994.59
2023-03-10T06:04:07.606Z,99979.28
2023-03-10T06:06:38.629Z,99981.72
2023-03-10T06:09:08.293Z,99978.28
2023-03-10T06:11:37.298Z,99972.13
2023-03-10T06:14:05.805Z,99976.50
2023-03-10T06:16:34.548Z,99972.25
2023-03-10T06:19:03.094Z,99982.56
2023-03-10T06:21:31.956Z,99980.84
2023-03-10T06:24:03.515Z,100004.78
2023-03-10T06:26:33.173Z,100022.66
2023-03-10T06:29:01.854Z,100034.69
2023-03-10T06:31:32.024Z,100026.06
2023-03-10T06:34:04.217Z,100027.22
2023-03-10T06:36:33.333Z,100043.84
2023-03-10T06:39:05.693Z,100049.22
2023-03-10T06:41:38.337Z,100057.84
2023-03-10T06:44:07.060Z,100062.25
2023-03-10T06:46:41.495Z,100067.38
2023-03-10T06:49:11.109Z,100075.38
2023-03-10T06:51:40.864Z,100095.31
2023-03-10T06:54:10.762Z,100107.44
2023-03-10T06:56:39.467Z,100105.91
2023-03-10T06:59:10.283Z,100121.53
2023-03-10T07:01:39.344Z,100119.91
2023-03-10T07:04:08.230Z,100111.22
2023-03-10T07:06:36.676Z,100118.19
2023-03-10T07:09:06.287Z,100110.38
2023-03-10T07:11:37.263Z,100103.34
2023-03-10T07:14:07.997Z,100109.53
2023-03-10T07:16:40.932Z,100113.88
2023-03-10T07:19:11.388Z,100119.06
2023-03-10T07:21:40.230Z,100117.44
2023-03-10T07:24:09.117Z,100121.00
2023-03-10T07:26:40.684Z,100120.16
2023-03-10T07:29:11.338Z,100122.75
2023-03-10T07:31:53.389Z,100131.19
2023-03-10T07:34:22.794Z,100132.25
2023-03-10T07:36:52.167Z,100142.03
2023-03-10T07:39:22.631Z,100148.34
2023-03-10T07:41:53.971Z,100165.59
2023-03-10T07:44:26.504Z,100166.44
2023-03-10T07:47:00.328Z,100177.66
2023-03-10T07:49:29.506Z,100187.28
2023-03-10T07:51:59.056Z,100195.78
2023-03-10T07:54:28.721Z,100200.91
2023-03-10T07:56:59.981Z,100206.94
2023-03-10T07:59:28.232Z,100217.38
2023-03-10T08:02:06.278Z,100227.59
2023-03-10T08:04:36.822Z,100226.75
2023-03-10T08:07:05.547Z,100229.34
2023-03-10T08:09:33.967Z,100232.63
2023-03-10T08:12:11.020Z,100236.97
2023-03-10T08:14:39.345Z,100253.28
2023-03-10T08:17:07.765Z,100262.72
2023-03-10T08:19:39.555Z,100269.41
2023-03-10T08:22:08.350Z,100276.09
2023-03-10T08:24:44.559Z,100284.50
2023-03-10T08:27:17.162Z,100282.59
2023-03-10T08:29:47.894Z,100285.69
2023-03-10T08:32:17.430Z,100290.44
2023-03-10T08:34:48.551Z,100305.84
2023-03-10T08:37:23.236Z,100318.88
2023-03-10T08:39:57.371Z,100320.25
2023-03-10T08:42:28.088Z,100320.69
2023-03-10T08:44:58.387Z,100324.38
2023-03-10T08:47:29.839Z,100326.25
2023-03-10T08:50:06.744Z,100329.81
2023-03-10T08:52:35.158Z,100329.00
2023-03-10T08:55:07.867Z,100321.28
2023-03-10T08:57:37.876Z,100318.19
2023-03-10T09:00:13.034Z,100331.25
2023-03-10T09:02:41.936Z,100332.91
2023-03-10T09:05:10.983Z,100348.44
2023-03-10T09:07:39.711Z,100345.28
2023-03-10T09:10:11.618Z,100347.81
2023-03-10T09:12:42.938Z,100348.94
2023-03-10T09:15:20.278Z,100352.25
2023-03-10T09:17:48.883Z,100356.09
2023-03-10T09:20:21.936Z,100351.94
2023-03-10T09:22:52.263Z,100354.69
2023-03-10T09:25:21.318Z,100345.31
2023-03-10T09:27:52.731Z,100346.00
2023-03-10T09:30:24.314Z,100344.78
2023-03-10T09:32:53.292Z,100342.94
2023-03-10T09:35:21.958Z,100343.13
2023-03-10T09:37:51.477Z,100342.50
2023-03-10T09:40:23.083Z,100353.41
2023-03-10T09:42:58.443Z,100360.91
2023-03-10T09:45:45.446Z,100369.56
2023-03-10T09:48:26.508Z,100358.72
2023-03-10T09:50:57.307Z,100364.03
2023-03-10T09:53:49.469Z,100353.72
2023-03-10T09:56:22.578Z,100347.59
2023-03-10T09:58:57.999Z,100341.63
2023-03-10T10:01:36.610Z,100341.44
2023-03-10T10:04:11.109Z,100337.88
2023-03-10T10:06:44.896Z,100336.16
2023-03-10T10:09:29.525Z,100340.53
2023-03-10T10:11:57.937Z,100339.75
2023-03-10T10:14:31.607Z,100341.53
2023-03-10T10:17:11.654Z,100349.00
2023-03-10T10:19:41.684Z,100349.09
2023-03-10T10:22:18.153Z,100354.91
2023-03-10T10:25:02.840Z,100353.00
2023-03-10T10:27:33.313Z,100360.22
2023-03-10T10:30:29.064Z,100370.31
2023-03-10T10:32:59.296Z,100378.75
2023-03-10T10:35:30.165Z,100382.44
2023-03-10T10:38:06.231Z,100389.97
2023-03-10T10:40:50.993Z,100398.19
2023-03-10T10:43:23.342Z,100393.53
2023-03-10T10:46:07.872Z,100392.13
2023-03-10T10:48:41.965Z,100406.41
2023-03-10T10:51:25.525Z,100416.69
2023-03-10T10:53:55.275Z,100429.56
2023-03-10T10:56:25.440Z,100425.03
2023-03-10T10:59:07.740Z,100428.00
2023-03-10T11:01:55.435Z,100427.31
2023-03-10T11:04:26.053Z,100424.34
2023-03-10T11:07:11.412Z,100420.97
2023-03-10T11:09:41.028Z,100429.69
2023-03-10T11:12:23.668Z,100423.59
2023-03-10T11:15:06.583Z,100429.94
2023-03-10T11:17:43.415Z,100439.84
2023-03-10T11:20:24.929Z,100440.84
2023-03-10T11:23:08.320Z,100441.00
2023-03-10T11:25:44.576Z,100440.78
2023-03-10T11:28:27.993Z,100436.72
2023-03-10T11:31:13.046Z,100438.53
2023-03-10T11:33:52.532Z,100434.44
2023-03-10T11:36:33.148Z,100442.88
2023-03-10T11:39:13.092Z,100460.28
2023-03-10T11:41:50.120Z,100445.81
2023-03-10T11:44:27.416Z,100455.69
2023-03-10T11:47:02.881Z,100452.53
2023-03-10T11:49:38.583Z,100446.69
2023-03-10T11:52:15.221Z,100444.22
2023-03-10T11:54:50.252Z,100448.38
2023-03-10T11:57:21.372Z,100451.28
2023-03-10T11:59:56.099Z,100439.63
2023-03-10T12:02:37.369Z,100449.97
2023-03-10T12:05:21.787Z,100443.41
2023-03-10T12:07:54.109Z,100435.78
2023-03-10T12:10:25.834Z,100443.16
2023-03-10T12:12:58.048Z,100429.31
2023-03-10T12:15:36.469Z,100418.91
2023-03-10T12:18:07.266Z,100411.69
2023-03-10T12:20:38.967Z,100405.78
2023-03-10T12:23:40.680Z,100398.59
2023-03-10T12:26:17.588Z,100378.66
2023-03-10T12:29:24.910Z,100384.28
2023-03-10T12:31:59.677Z,100388.31
2023-03-10T12:34:32.430Z,100383.00
2023-03-10T12:37:10.792Z,100379.25
2023-03-10T12:39:42.127Z,100383.06
2023-03-10T12:42:31.809Z,100381.66
2023-03-10T12:45:22.430Z,100385.59
2023-03-10T12:48:01.875Z,100380.94
2023-03-10T12:50:42.275Z,100384.28
2023-03-10T12:53:36.741Z,100386.63
2023-03-10T12:56:24.180Z,100390.75
2023-03-10T12:59:00.260Z,100393.59
2023-03-10T13:01:36.659Z,100387.56
2023-03-10T13:04:18.191Z,100397.19
2023-03-10T13:07:03.802Z,100397.41
2023-03-10T13:09:38.779Z,100398.97
2023-03-10T13:12:16.486Z,100398.03
2023-03-10T13:14:53.122Z,100405.72
2023-03-10T13:17:30.422Z,100393.38
2023-03-10T13:20:05.891Z,100393.97
2023-03-10T13:22:40.464Z,100397.16
2023-03-10T13:25:16.593Z,100393.25
2023-03-10T13:27:45.237Z,100389.34
2023-03-10T13:30:17.351Z,100395.78
2023-03-10T13:32:55.148Z,100396.19
2023-03-10T13:35:30.697Z,100398.69
2023-03-10T13:38:09.082Z,100400.38
2023-03-10T13:40:43.089Z,100397.13
2023-03-10T13:43:35.956Z,100392.41
2023-03-10T13:46:09.802Z,100393.66
2023-03-10T13:48:42.669Z,100385.56
2023-03-10T13:51:22.500Z,100393.19
2023-03-10T13:54:21.213Z,100376.84
2023-03-10T13:56:52.615Z,100370.31
2023-03-10T13:59:24.886Z,100373.88
2023-03-10T14:01:59.055Z,100365.69
2023-03-10T14:04:46.097Z,100354.47
2023-03-10T14:07:20.778Z,100344.03
2023-03-10T14:10:12.179Z,100348.97
2023-03-10T14:12:43.626Z,100331.94
2023-03-10T14:15:29.505Z,100338.16
2023-03-10T14:18:19.712Z,100322.38
2023-03-10T14:20:49.482Z,100312.34
2023-03-10T14:23:42.818Z,100318.38
2023-03-10T14:26:18.018Z,100324.66
2023-03-10T14:28:47.841Z,100322.94
2023-03-10T14:31:27.556Z,100330.41
2023-03-10T14:33:56.933Z,100324.47
2023-03-10T14:36:31.864Z,100318.66
2023-03-10T14:39:02.102Z,100322.00
2023-03-10T14:41:33.891Z,100316.72
2023-03-10T14:44:07.508Z,100322.72
2023-03-10T14:46:39.207Z,100313.19
2023-03-10T14:49:13.000Z,100326.53
2023-03-10T14:51:42.169Z,100323.53
2023-03-10T14:54:18.650Z,100324.66
2023-03-10T14:56:51.824Z,100322.06
2023-03-10T14:59:21.003Z,100331.41
2023-03-10T15:01:57.029Z,100324.59
2023-03-10T15:04:26.863Z,100324.47
2023-03-10T15:06:55.737Z,100326.25
2023-03-10T15:09:29.283Z,100334.66
2023-03-10T15:12:00.145Z,100323.94
2023-03-10T15:14:32.719Z,100304.69
2023-03-10T15:17:04.521Z,100306.72
2023-03-10T15:19:33.364Z,100295.91
2023-03-10T15:22:03.230Z,100283.53
2023-03-10T15:24:34.014Z,100271.78
2023-03-10T15:27:12.927Z,100268.59
2023-03-10T15:29:49.075Z,100279.56
2023-03-10T15:32:20.186Z,100278.94
2023-03-10T15:34:50.512Z,100281.66
2023-03-10T15:37:21.238Z,100282.97
2023-03-10T15:39:52.365Z,100283.97
2023-03-10T15:42:26.735Z,100273.97
2023-03-10T15:44:55.901Z,100275.91
2023-03-10T15:47:24.598Z,100276.22
2023-03-10T15:49:54.461Z,100274.81
2023-03-10T15:52:23.612Z,100276.28
2023-03-10T15:54:52.311Z,100277.88
2023-03-10T15:57:21.520Z,100280.56
2023-03-10T15:59:53.417Z,100278.06
2023-03-10T16:02:22.737Z,100271.84
2023-03-10T16:04:52.397Z,100285.78
2023-03-10T16:07:21.143Z,100280.56
2023-03-10T16:09:50.130Z,100286.22
2023-03-10T16:12:18.468Z,100289.50
2023-03-10T16:14:47.239Z,100288.63
2023-03-10T16:17:17.263Z,100286.59
2023-03-10T16:19:45.886Z,100288.00
2023-03-10T16:22:18.044Z,100284.28
2023-03-10T16:24:50.386Z,100280.81
2023-03-10T16:27:18.959Z,100276.06
2023-03-10T16:29:47.457Z,100274.22
2023-03-10T16:32:19.888Z,100273.34
2023-03-10T16:34:48.687Z,100273.09
2023-03-10T16:37:17.016Z,100262.78
2023-03-10T16:39:46.648Z,100279.31
2023-03-10T16:42:15.507Z,100276.41
2023-03-10T16:44:44.228Z,100273.22
2023-03-10T16:47:14.875Z,100277.94
2023-03-10T16:49:45.788Z,100265.84
2023-03-10T16:52:14.605Z,100270.50
2023-03-10T16:54:45.071Z,100275.44
2023-03-10T16:57:13.965Z,100261.84
2023-03-10T16:59:44.858Z,100257.94
2023-03-10T17:02:16.771Z,100257.19
2023-03-10T17:04:47.070Z,100257.88
2023-03-10T17:07:20.710Z,100268.19
2023-03-10T17:09:51.379Z,100261.78
2023-03-10T17:12:20.583Z,100266.03
2023-03-10T17:14:51.033Z,100271.75
2023-03-10T17:17:19.962Z,100271.69
2023-03-10T17:19:53.010Z,100283.31
2023-03-10T17:22:21.639Z,100294.66
2023-03-10T17:24:55.251Z,100318.72
2023-03-10T17:27:24.227Z,100307.84
2023-03-10T17:29:52.758Z,100313.34
2023-03-10T17:32:21.876Z,100323.75
2023-03-10T17:34:52.614Z,100319.41
2023-03-10T17:37:22.972Z,100325.75
2023-03-10T17:39:51.846Z,100327.13
2023-03-10T17:42:20.178Z,100341.34
2023-03-10T17:44:48.622Z,100342.56
2023-03-10T17:47:17.188Z,100334.63
2023-03-10T17:49:45.626Z,100338.53
2023-03-10T17:52:14.038Z,100331.22
2023-03-10T17:54:44.634Z,100331.72
2023-03-10T17:57:13.349Z,100332.88
2023-03-10T17:59:41.821Z,100323.34
2023-03-10T18:02:12.273Z,100322.03
2023-03-10T18:04:45.437Z,100313.03
2023-03-10T18:07:14.054Z,100316.50
2023-03-10T18:09:44.184Z,100326.31
2023-03-10T18:12:12.531Z,100328.06
2023-03-10T18:14:40.830Z,100344.75
2023-03-10T18:17:09.082Z,100357.44
2023-03-10T18:19:38.998Z,100350.84
2023-03-10T18:22:08.642Z,100358.56
2023-03-10T18:24:37.268Z,100355.16
2023-03-10T18:27:07.299Z,100357.63
2023-03-10T18:29:35.903Z,100366.16
2023-03-10T18:32:04.424Z,100369.09
2023-03-10T18:34:32.826Z,100373.81
2023-03-10T18:37:01.668Z,100370.78
2023-03-10T18:39:30.173Z,100374.59
2023-03-10T18:41:58.635Z,100371.88
2023-03-10T18:44:28.579Z,100374.50
2023-03-10T18:46:57.307Z,100375.91
2023-03-10T18:49:29.757Z,100380.66
2023-03-10T18:51:59.662Z,100381.00
2023-03-10T18:54:28.194Z,100392.88
2023-03-10T18:57:02.118Z,100396.25
2023-03-10T18:59:32.304Z,100395.34
2023-03-10T19:02:00.922Z,100391.69
2023-03-10T19:04:29.612Z,100398.84
2023-03-10T19:06:58.473Z,100399.88
2023-03-10T19:09:28.048Z,100398.84
2023-03-10T19:11:58.645Z,100398.00
2023-03-10T19:14:32.764Z,100399.78
2023-03-10T19:17:03.149Z,100406.78
2023-03-10T19:19:32.222Z,100405.75
2023-03-10T19:22:01.736Z,100407.97
2023-03-10T19:24:30.619Z,100403.69
2023-03-10T19:26:59.003Z,100401.97
2023-03-10T19:29:27.360Z,100397.19
2023-03-10T19:31:56.036Z,100398.41
2023-03-10T19:34:26.164Z,100390.06
2023-03-10T19:36:54.777Z,100389.91
2023-03-10T19:39:23.992Z,100384.66
2023-03-10T19:41:52.687Z,100387.47
2023-03-10T19:44:22.880Z,100381.22
2023-03-10T19:46:51.377Z,100384.00
2023-03-10T19:49:20.013Z,100379.03
2023-03-10T19:51:52.293Z,100371.25
2023-03-10T19:54:21.251Z,100370.91
2023-03-10T19:56:49.894Z,100360.63
2023-03-10T19:59:19.392Z,100364.16
2023-03-10T20:01:49.658Z,100371.59
2023-03-10T20:04:22.080Z,100363.31
2023-03-10T20:06:52.491Z,100369.81
2023-03-10T20:09:20.994Z,100371.97
2023-03-10T20:11:49.351Z,100362.59
2023-03-10T20:14:25.242Z,100370.84
2023-03-10T20:16:54.982Z,100372.78
2023-03-10T20:19:24.577Z,100368.28
2023-03-10T20:21:55.590Z,100368.28
2023-03-10T20:24:24.231Z,100367.47
2023-03-10T20:26:53.746Z,100370.47
2023-03-10T20:29:22.465Z,100365.38
2023-03-10T20:31:50.926Z,100371.47
2023-03-10T20:34:22.495Z,100379.13
2023-03-10T20:36:51.118Z,100379.69
2023-03-10T20:39:29.099Z,100373.69
2023-03-10T20:41:58.924Z,100369.16
2023-03-10T20:44:28.405Z,100374.31
2023-03-10T20:46:57.145Z,100375.53
2023-03-10T20:49:26.977Z,100376.94
2023-03-10T20:51:57.583Z,100374.47
2023-03-10T20:54:30.596Z,100367.81
2023-03-10T20:56:59.227Z,100369.34
2023-03-10T20:59:28.870Z,100366.81
2023-03-10T21:01:57.714Z,100366.94
2023-03-10T21:04:28.018Z,100372.03
2023-03-10T21:06:56.977Z,100364.66
2023-03-10T21:09:26.594Z,100364.66
2023-03-10T21:11:56.971Z,100362.28
2023-03-10T21:14:26.376Z,100368.78
2023-03-10T21:17:00.157Z,100367.00
2023-03-10T21:19:30.497Z,100366.94
2023-03-10T21:21:59.704Z,100375.53
2023-03-10T21:24:29.629Z,100365.50
2023-03-10T21:27:00.616Z,100374.78
2023-03-10T21:29:29.449Z,100374.91
2023-03-10T21:31:58.258Z,100373.59
2023-03-10T21:34:27.050Z,100369.63
2023-03-10T21:36:56.081Z,100372.16
2023-03-10T21:39:24.866Z,100381.28
2023-03-10T21:41:54.883Z,100376.75
2023-03-10T21:44:24.938Z,100370.91
2023-03-10T21:46:53.489Z,100367.38
2023-03-10T21:49:23.210Z,100372.69
2023-03-10T21:51:51.803Z,100372.44
2023-03-10T21:54:20.425Z,100381.41
2023-03-10T21:56:49.212Z,100383.09
2023-03-10T21:59:18.203Z,100381.38
2023-03-10T22:01:48.651Z,100377.69
2023-03-10T22:04:17.386Z,100379.44
2023-03-10T22:06:46.262Z,100389.00
2023-03-10T22:09:15.052Z,100377.66
2023-03-10T22:11:44.822Z,100369.38
2023-03-10T22:14:15.546Z,100378.06
2023-03-10T22:16:44.682Z,100369.56
2023-03-10T22:19:14.973Z,100364.66
2023-03-10T22:21:43.559Z,100361.88
2023-03-10T22:24:13.870Z,100359.00
2023-03-10T22:26:42.917Z,100354.56
2023-03-10T22:29:11.643Z,100358.38
2023-03-10T22:31:40.113Z,100363.63
2023-03-10T22:34:10.100Z,100362.66
2023-03-10T22:36:40.151Z,100363.81
2023-03-10T22:39:09.871Z,100370.31
2023-03-10T22:41:42.277Z,100353.59
2023-03-10T22:44:11.314Z,100356.03
2023-03-10T22:46:41.001Z,100350.69
2023-03-10T22:49:12.095Z,100345.13
2023-03-10T22:51:42.495Z,100350.28
2023-03-10T22:54:11.125Z,100346.00
2023-03-10T22:56:40.819Z,100350.41
2023-03-10T22:59:09.201Z,100351.13
2023-03-10T23:01:38.989Z,100341.88
2023-03-10T23:04:08.478Z,100333.94
2023-03-10T23:06:36.913Z,100337.19
2023-03-10T23:09:10.810Z,100344.91
2023-03-10T23:11:39.597Z,100346.75
2023-03-10T23:14:08.170Z,100358.00
2023-03-10T23:16:39.105Z,100351.22
2023-03-10T23:19:09.371Z,100354.47
2023-03-10T23:21:38.116Z,100355.31
2023-03-10T23:24:08.928Z,100347.38
2023-03-10T23:26:40.718Z,100346.25
2023-03-10T23:29:10.282Z,100350.13
2023-03-10T23:31:39.629Z,100341.63
2023-03-10T23:34:09.447Z,100342.38
2023-03-10T23:36:40.594Z,100347.72
2023-03-10T23:39:58.788Z,100345.06
2023-03-10T23:42:28.933Z,100344.38
2023-03-10T23:45:03.642Z,100340.91
2023-03-10T23:47:32.309Z,100343.59
2023-03-10T23:50:01.322Z,100339.72
2023-03-10T23:52:29.909Z,100341.63
2023-03-10T23:54:59.926Z,100335.22
2023-03-10T23:57:30.182Z,100334.94
2023-03-10T23:59:59.007Z,100337.34
